createdAt,value
2018-03-04T00:01:47.056Z,97.57
2018-03-04T00:04:14.536Z,84.00
2018-03-04T00:06:42.013Z,81.47
2018-03-04T00:09:10.275Z,91.60
2018-03-04T00:11:37.748Z,96.10
2018-03-04T00:14:05.987Z,97.50
2018-03-04T00:16:33.457Z,93.10
2018-03-04T00:19:00.972Z,99.07
2018-03-04T00:21:28.437Z,79.80
2018-03-04T00:23:55.908Z,98.57
2018-03-04T00:26:23.391Z,80.77
2018-03-04T00:28:52.476Z,98.33
2018-03-04T00:31:19.965Z,95.47
2018-03-04T00:33:48.251Z,64.77
2018-03-04T00:36:16.269Z,88.67
2018-03-04T00:38:44.464Z,101.23
2018-03-04T00:41:12.757Z,96.77
2018-03-04T00:43:40.219Z,97.63
2018-03-04T00:46:07.735Z,62.60
2018-03-04T00:48:35.206Z,93.63
2018-03-04T00:51:03.471Z,102.23
2018-03-04T00:53:30.948Z,81.07
2018-03-04T00:55:59.222Z,101.63
2018-03-04T00:58:27.462Z,101.90
2018-03-04T01:00:54.936Z,97.60
2018-03-04T01:03:23.183Z,93.17
2018-03-04T01:05:50.675Z,102.00
2018-03-04T01:08:20.354Z,84.53
2018-03-04T01:10:47.833Z,78.17
2018-03-04T01:13:16.089Z,85.77
2018-03-04T01:15:43.563Z,96.87
2018-03-04T01:18:11.055Z,94.07
2018-03-04T01:20:38.548Z,109.47
2018-03-04T01:23:06.062Z,100.73
2018-03-04T01:25:33.531Z,87.63
2018-03-04T01:28:01.057Z,99.80
2018-03-04T01:30:28.523Z,85.30
2018-03-04T01:32:56.118Z,95.53
2018-03-04T01:35:23.639Z,102.30
2018-03-04T01:37:52.340Z,87.50
2018-03-04T01:40:20.455Z,103.47
2018-03-04T01:42:47.963Z,82.30
2018-03-04T01:45:16.278Z,98.50
2018-03-04T01:47:43.784Z,106.27
2018-03-04T01:50:12.012Z,92.50
2018-03-04T01:52:40.507Z,87.67
2018-03-04T01:55:07.984Z,85.53
2018-03-04T01:57:36.239Z,100.23
2018-03-04T02:00:03.720Z,89.30
2018-03-04T02:02:32.885Z,97.20
2018-03-04T02:05:01.317Z,104.27
2018-03-04T02:07:28.791Z,97.43
2018-03-04T02:09:56.266Z,95.93
2018-03-04T02:12:23.760Z,85.77
2018-03-04T02:14:52.004Z,90.30
2018-03-04T02:17:21.556Z,80.43
2018-03-04T02:19:50.047Z,94.13
2018-03-04T02:22:17.527Z,95.10
2018-03-04T02:24:45.632Z,103.20
2018-03-04T02:27:14.040Z,97.20
2018-03-04T02:29:41.538Z,87.03
2018-03-04T02:32:09.020Z,100.73
2018-03-04T02:34:37.259Z,98.33
2018-03-04T02:37:04.740Z,92.07
2018-03-04T02:39:33.706Z,90.27
2018-03-04T02:42:01.180Z,94.97
2018-03-04T02:44:29.732Z,85.00
2018-03-04T02:46:57.204Z,95.60
2018-03-04T02:49:24.684Z,93.33
2018-03-04T02:51:52.170Z,75.97
2018-03-04T02:54:19.723Z,101.20
2018-03-04T02:56:47.189Z,81.53
2018-03-04T02:59:14.676Z,84.03
2018-03-04T03:01:43.892Z,80.30
2018-03-04T03:04:11.369Z,99.33
2018-03-04T03:06:40.508Z,90.27
2018-03-04T03:09:08.004Z,74.73
2018-03-04T03:11:35.467Z,85.47
2018-03-04T03:14:03.673Z,94.37
2018-03-04T03:16:31.611Z,74.37
2018-03-04T03:19:00.578Z,83.83
2018-03-04T03:21:28.654Z,89.97
2018-03-04T03:23:57.235Z,67.20
2018-03-04T03:26:24.695Z,70.27
2018-03-04T03:28:52.195Z,89.63
2018-03-04T03:31:19.670Z,88.97
2018-03-04T03:33:47.142Z,89.30
2018-03-04T03:36:16.712Z,93.13
2018-03-04T03:38:45.958Z,84.30
2018-03-04T03:41:13.428Z,86.80
2018-03-04T03:43:40.891Z,89.57
2018-03-04T03:46:08.399Z,79.83
2018-03-04T03:48:35.900Z,81.67
2018-03-04T03:51:03.368Z,84.33
2018-03-04T03:53:31.642Z,84.23
2018-03-04T03:55:59.881Z,50.43
2018-03-04T04:11:28.157Z,84.20
2018-03-04T04:13:56.353Z,99.10
2018-03-04T04:16:25.551Z,93.43
2018-03-04T04:18:54.524Z,86.50
2018-03-04T04:21:22.792Z,96.27
2018-03-04T04:23:50.515Z,80.23
2018-03-04T04:26:18.005Z,86.57
2018-03-04T04:28:46.488Z,92.37
2018-03-04T04:31:13.972Z,87.23
2018-03-04T04:33:43.051Z,84.93
2018-03-04T04:36:11.790Z,93.80
2018-03-04T04:38:39.324Z,89.27
2018-03-04T04:41:06.846Z,89.70
2018-03-04T04:43:35.096Z,83.87
2018-03-04T04:46:02.574Z,89.40
2018-03-04T04:48:30.036Z,84.43
2018-03-04T04:50:59.034Z,89.17
2018-03-04T04:53:27.273Z,88.70
2018-03-04T04:55:54.774Z,92.83
2018-03-04T04:58:23.003Z,91.93
2018-03-04T05:00:50.487Z,92.57
2018-03-04T05:03:17.980Z,95.90
2018-03-04T05:05:45.466Z,95.20
2018-03-04T05:08:12.947Z,98.03
2018-03-04T05:10:40.973Z,83.57
2018-03-04T05:13:08.454Z,94.23
2018-03-04T05:15:37.356Z,79.47
2018-03-04T05:18:04.807Z,89.17
2018-03-04T05:20:33.803Z,93.00
2018-03-04T05:23:01.379Z,79.40
2018-03-04T05:25:29.624Z,86.33
2018-03-04T05:27:57.246Z,89.13
2018-03-04T05:30:24.739Z,89.83
2018-03-04T05:32:52.226Z,90.83
2018-03-04T05:35:20.459Z,88.80
2018-03-04T05:37:47.938Z,90.73
2018-03-04T05:40:15.413Z,81.73
2018-03-04T05:42:44.155Z,86.23
2018-03-04T05:45:11.618Z,97.20
2018-03-04T05:47:39.094Z,89.27
2018-03-04T05:50:06.558Z,91.00
2018-03-04T05:52:34.809Z,96.60
2018-03-04T05:55:03.578Z,86.27
2018-03-04T05:57:31.060Z,91.00
2018-03-04T05:59:58.524Z,85.73
2018-03-04T06:02:26.008Z,85.67
2018-03-04T06:04:53.550Z,90.40
2018-03-04T06:07:21.801Z,93.93
2018-03-04T06:09:49.287Z,93.50
2018-03-04T06:12:17.526Z,93.53
2018-03-04T06:14:45.029Z,92.57
2018-03-04T06:17:13.976Z,82.37
2018-03-04T06:19:41.451Z,86.10
2018-03-04T06:22:10.119Z,90.67
2018-03-04T06:24:37.619Z,68.63
2018-03-04T06:27:05.109Z,96.90
2018-03-04T06:29:32.687Z,87.30
2018-03-04T06:32:00.844Z,74.27
2018-03-04T06:34:28.336Z,93.53
2018-03-04T06:36:56.568Z,90.27
2018-03-04T06:39:24.032Z,68.23
2018-03-04T06:41:51.526Z,87.00
2018-03-04T06:44:19.766Z,87.47
2018-03-04T06:46:47.242Z,90.30
2018-03-04T06:49:15.491Z,72.17
2018-03-04T06:51:42.971Z,95.07
2018-03-04T06:54:10.439Z,86.77
2018-03-04T06:56:38.703Z,81.20
2018-03-04T06:59:06.188Z,85.97
2018-03-04T07:01:35.400Z,81.23
2018-03-04T07:04:02.869Z,95.17
2018-03-04T07:06:30.333Z,77.60
2018-03-04T07:08:57.798Z,80.80
2018-03-04T07:11:25.951Z,76.73
2018-03-04T07:13:54.485Z,77.73
2018-03-04T07:16:21.955Z,70.97
2018-03-04T07:18:50.534Z,82.93
2018-03-04T07:21:19.528Z,79.33
2018-03-04T07:23:47.776Z,77.57
2018-03-04T07:26:15.234Z,72.13
2018-03-04T07:28:42.718Z,73.40
2018-03-04T07:31:10.217Z,53.73
2018-03-04T07:33:37.694Z,72.37
2018-03-04T07:36:05.160Z,73.50
2018-03-04T07:38:34.268Z,71.80
2018-03-04T07:41:02.511Z,68.67
2018-03-04T07:43:30.767Z,71.13
2018-03-04T07:45:58.236Z,73.53
2018-03-04T07:48:25.731Z,62.70
2018-03-04T07:50:53.979Z,62.00
2018-03-04T07:53:21.454Z,62.03
2018-03-04T07:55:48.911Z,64.30
2018-03-04T07:58:17.372Z,60.27
2018-03-04T08:00:44.854Z,55.30
2018-03-04T08:03:13.083Z,62.30
2018-03-04T08:05:40.574Z,61.00
2018-03-04T08:08:08.837Z,59.77
2018-03-04T08:10:38.311Z,60.23
2018-03-04T08:13:05.796Z,62.97
2018-03-04T08:15:33.298Z,62.40
2018-03-04T08:18:00.774Z,59.67
2018-03-04T08:20:28.265Z,61.30
2018-03-04T08:22:55.730Z,58.57
2018-03-04T08:25:38.194Z,60.10
2018-03-04T08:28:17.587Z,46.73
2018-03-04T08:30:45.850Z,57.10
2018-03-04T08:33:14.084Z,60.37
2018-03-04T08:35:41.563Z,54.23
2018-03-04T08:38:09.612Z,57.27
2018-03-04T08:40:39.715Z,58.37
2018-03-04T08:43:08.096Z,61.80
2018-03-04T08:45:35.573Z,59.07
2018-03-04T08:48:04.533Z,55.97
2018-03-04T08:50:32.880Z,55.80
2018-03-04T08:53:01.286Z,48.90
2018-03-04T08:55:28.763Z,52.33
2018-03-04T08:57:56.241Z,53.83
2018-03-04T09:00:23.736Z,51.53
2018-03-04T09:02:51.225Z,53.47
2018-03-04T09:05:18.699Z,50.40
2018-03-04T09:07:46.174Z,52.63
2018-03-04T09:10:13.651Z,48.87
2018-03-04T09:12:41.913Z,55.70
2018-03-04T09:15:10.151Z,52.13
2018-03-04T09:17:37.640Z,56.50
2018-03-04T09:20:05.898Z,55.10
2018-03-04T09:22:33.398Z,58.90
2018-03-04T09:25:00.909Z,49.00
2018-03-04T09:27:28.417Z,53.27
2018-03-04T09:29:55.895Z,56.70
2018-03-04T09:32:23.376Z,51.90
2018-03-04T09:34:51.434Z,52.80
2018-03-04T09:37:18.913Z,50.20
2018-03-04T09:39:46.417Z,55.60
2018-03-04T09:42:13.898Z,54.40
2018-03-04T09:44:41.384Z,60.90
2018-03-04T09:47:09.033Z,51.93
2018-03-04T09:49:36.530Z,48.03
2018-03-04T09:52:04.001Z,58.43
2018-03-04T09:54:31.497Z,48.87
2018-03-04T09:56:59.897Z,56.93
2018-03-04T09:59:28.151Z,55.17
2018-03-04T10:01:55.727Z,56.10
2018-03-04T10:04:24.086Z,58.63
2018-03-04T10:06:51.563Z,54.27
2018-03-04T10:09:21.014Z,47.47
2018-03-04T10:11:48.503Z,49.83
2018-03-04T10:14:16.463Z,53.20
2018-03-04T10:16:43.943Z,42.80
2018-03-04T10:19:11.424Z,49.50
2018-03-04T10:21:41.077Z,44.53
2018-03-04T10:24:08.552Z,44.67
2018-03-04T10:26:36.155Z,54.40
2018-03-04T10:29:04.308Z,49.63
2018-03-04T10:31:32.795Z,52.87
2018-03-04T10:34:00.304Z,45.73
2018-03-04T10:36:27.776Z,46.27
2018-03-04T10:38:55.293Z,44.10
2018-03-04T10:41:22.772Z,41.17
2018-03-04T10:43:50.257Z,39.33
2018-03-04T10:46:18.495Z,46.73
2018-03-04T10:48:46.362Z,46.80
2018-03-04T10:51:13.835Z,47.37
2018-03-04T10:53:44.201Z,48.17
2018-03-04T10:56:12.585Z,52.80
2018-03-04T10:58:40.118Z,49.47
2018-03-04T11:01:10.415Z,52.07
2018-03-04T11:03:38.079Z,47.70
2018-03-04T11:06:06.339Z,46.43
2018-03-04T11:08:33.818Z,42.87
2018-03-04T11:11:01.302Z,49.93
2018-03-04T11:13:29.593Z,49.67
2018-03-04T11:15:58.267Z,54.10
2018-03-04T11:18:25.739Z,53.40
2018-03-04T11:20:53.376Z,47.70
2018-03-04T11:23:22.198Z,45.70
2018-03-04T11:25:49.714Z,44.70
2018-03-04T11:28:17.724Z,43.03
2018-03-04T11:30:45.246Z,42.50
2018-03-04T11:33:12.725Z,36.67
2018-03-04T11:35:41.809Z,50.27
2018-03-04T11:38:09.309Z,41.40
2018-03-04T11:40:36.815Z,39.13
2018-03-04T11:43:04.866Z,44.47
2018-03-04T11:45:33.934Z,44.33
2018-03-04T11:48:01.441Z,42.90
2018-03-04T11:50:28.935Z,42.00
2018-03-04T11:52:56.423Z,45.20
2018-03-04T11:55:23.910Z,46.63
2018-03-04T11:57:52.663Z,45.13
2018-03-04T12:00:20.951Z,42.00
2018-03-04T12:02:49.238Z,46.00
2018-03-04T12:05:16.734Z,47.80
2018-03-04T12:07:44.252Z,46.47
2018-03-04T12:10:12.677Z,47.67
2018-03-04T12:12:41.052Z,41.93
2018-03-04T12:15:08.557Z,42.70
2018-03-04T12:17:36.437Z,39.43
2018-03-04T12:20:05.019Z,35.07
2018-03-04T12:22:32.504Z,32.57
2018-03-04T12:25:01.081Z,36.57
2018-03-04T12:27:28.590Z,36.63
2018-03-04T12:29:57.627Z,37.67
2018-03-04T12:32:26.437Z,33.67
2018-03-04T12:34:53.968Z,40.03
2018-03-04T12:37:21.465Z,37.90
2018-03-04T12:39:49.362Z,26.93
2018-03-04T12:42:17.394Z,38.67
2018-03-04T12:44:44.885Z,40.87
2018-03-04T12:47:13.308Z,37.07
2018-03-04T12:49:41.748Z,38.30
2018-03-04T12:52:09.327Z,36.43
2018-03-04T12:54:36.813Z,40.67
2018-03-04T12:57:05.583Z,29.50
2018-03-04T12:59:33.356Z,35.33
2018-03-04T13:02:02.042Z,31.80
2018-03-04T13:04:30.197Z,32.47
2018-03-04T13:06:57.750Z,25.80
2018-03-04T13:09:25.440Z,30.33
2018-03-04T13:11:52.953Z,25.50
2018-03-04T13:14:20.790Z,32.80
2018-03-04T13:16:48.303Z,22.60
2018-03-04T13:19:15.794Z,34.43
2018-03-04T13:21:45.302Z,30.50
2018-03-04T13:24:14.286Z,27.67
2018-03-04T13:26:42.561Z,28.67
2018-03-04T13:29:10.105Z,23.57
2018-03-04T13:31:37.615Z,30.73
2018-03-04T13:34:05.163Z,27.10
2018-03-04T13:36:32.688Z,27.90
2018-03-04T13:39:01.334Z,21.07
2018-03-04T13:41:28.839Z,21.13
2018-03-04T13:43:57.453Z,24.10
2018-03-04T13:46:24.992Z,26.53
2018-03-04T13:48:53.559Z,21.47
2018-03-04T13:51:22.154Z,24.63
2018-03-04T13:53:49.704Z,23.33
2018-03-04T13:56:17.978Z,22.23
2018-03-04T13:58:45.475Z,26.83
2018-03-04T14:01:13.613Z,25.60
2018-03-04T14:03:41.924Z,23.07
2018-03-04T14:06:09.404Z,23.13
2018-03-04T14:08:37.717Z,23.50
2018-03-04T14:11:06.100Z,20.07
2018-03-04T14:13:35.752Z,16.73
2018-03-04T14:16:03.612Z,18.23
2018-03-04T14:18:31.102Z,15.77
2018-03-04T14:20:58.607Z,15.67
2018-03-04T14:23:26.523Z,19.80
2018-03-04T14:25:55.475Z,18.07
2018-03-04T14:28:22.955Z,14.33
2018-03-04T14:30:50.491Z,19.23
2018-03-04T14:33:17.962Z,15.73
2018-03-04T14:35:46.424Z,13.50
2018-03-04T14:38:13.931Z,12.07
2018-03-04T14:40:42.208Z,10.93
2018-03-04T14:43:10.476Z,11.83
2018-03-04T14:45:38.734Z,11.70
2018-03-04T14:48:07.034Z,14.67
2018-03-04T14:50:35.300Z,13.27
2018-03-04T14:53:03.618Z,14.53
2018-03-04T14:55:31.173Z,13.77
2018-03-04T14:57:58.660Z,15.20
2018-03-04T15:00:26.264Z,15.27
2018-03-04T15:02:55.216Z,17.50
2018-03-04T15:05:22.788Z,16.13
2018-03-04T15:07:50.406Z,15.10
2018-03-04T15:10:18.073Z,16.70
2018-03-04T15:12:45.569Z,11.87
2018-03-04T15:15:13.063Z,13.97
2018-03-04T15:17:40.565Z,12.40
2018-03-04T15:20:08.045Z,13.00
2018-03-04T15:22:35.559Z,15.73
2018-03-04T15:25:03.063Z,15.23
2018-03-04T15:27:31.328Z,14.57
2018-03-04T15:29:58.820Z,14.43
2018-03-04T15:32:26.301Z,16.90
2018-03-04T15:34:53.771Z,13.83
2018-03-04T15:37:21.894Z,15.87
2018-03-04T15:39:49.385Z,12.00
2018-03-04T15:42:16.865Z,11.57
2018-03-04T15:44:44.363Z,14.47
2018-03-04T15:47:11.870Z,15.60
2018-03-04T15:49:39.379Z,14.27
2018-03-04T15:52:06.864Z,15.57
2018-03-04T15:54:34.330Z,12.57
2018-03-04T15:57:02.394Z,18.00
2018-03-04T15:59:29.892Z,15.70
2018-03-04T16:01:58.876Z,13.93
2018-03-04T16:04:26.951Z,12.37
2018-03-04T16:07:08.318Z,11.27
2018-03-04T16:09:40.481Z,12.57
2018-03-04T16:12:08.018Z,14.80
2018-03-04T16:14:35.514Z,17.23
2018-03-04T16:17:03.041Z,13.47
2018-03-04T16:19:30.514Z,13.20
2018-03-04T16:21:58.040Z,18.23
2018-03-04T16:24:26.502Z,17.87
2018-03-04T16:26:54.313Z,14.53
2018-03-04T16:29:23.352Z,18.77
2018-03-04T16:31:50.919Z,15.33
2018-03-04T16:34:19.195Z,16.87
2018-03-04T16:36:46.712Z,16.60
2018-03-04T16:39:14.338Z,11.83
2018-03-04T16:41:42.743Z,16.30
2018-03-04T16:44:10.631Z,18.23
2018-03-04T16:46:38.910Z,18.23
2018-03-04T16:49:06.887Z,19.60
2018-03-04T16:51:34.509Z,18.30
2018-03-04T16:54:01.999Z,16.80
2018-03-04T16:56:29.491Z,21.47
2018-03-04T16:58:57.035Z,15.93
2018-03-04T17:01:24.506Z,17.90
2018-03-04T17:03:52.022Z,20.43
2018-03-04T17:06:19.507Z,18.70
2018-03-04T17:08:48.393Z,19.07
2018-03-04T17:11:15.866Z,20.03
2018-03-04T17:13:43.347Z,19.60
2018-03-04T17:16:11.804Z,17.53
2018-03-04T17:18:39.305Z,24.10
2018-03-04T17:21:07.604Z,16.77
2018-03-04T17:23:35.109Z,17.30
2018-03-04T17:26:03.678Z,23.67
2018-03-04T17:28:31.174Z,19.77
2018-03-04T17:30:59.452Z,17.73
2018-03-04T17:33:28.333Z,23.73
2018-03-04T17:35:57.331Z,19.57
2018-03-04T17:38:25.567Z,25.90
2018-03-04T17:40:53.051Z,22.73
2018-03-04T17:43:22.659Z,25.03
2018-03-04T17:45:51.701Z,29.27
2018-03-04T17:48:20.552Z,26.03
2018-03-04T18:00:33.888Z,26.20
2018-03-04T18:03:01.474Z,26.70
2018-03-04T18:05:29.727Z,23.43
2018-03-04T18:07:57.222Z,22.50
2018-03-04T18:10:25.578Z,28.87
2018-03-04T18:12:53.091Z,23.60
2018-03-04T18:15:20.576Z,23.67
2018-03-04T18:17:48.201Z,24.77
2018-03-04T18:20:16.328Z,25.80
2018-03-04T18:22:44.600Z,24.47
2018-03-04T18:25:12.859Z,26.63
2018-03-04T18:27:40.390Z,27.80
2018-03-04T18:30:07.867Z,27.40
2018-03-04T18:32:36.364Z,25.87
2018-03-04T18:35:04.620Z,30.03
2018-03-04T18:37:32.870Z,34.77
2018-03-04T18:40:00.404Z,34.93
2018-03-04T18:42:27.960Z,35.27
2018-03-04T18:44:56.553Z,35.67
2018-03-04T18:47:24.031Z,33.23
2018-03-04T18:49:52.209Z,34.30
2018-03-04T18:52:19.706Z,39.07
2018-03-04T18:54:47.972Z,36.00
2018-03-04T18:57:16.286Z,45.13
2018-03-04T18:59:44.886Z,42.63
2018-03-04T19:02:12.386Z,34.53
2018-03-04T19:04:39.922Z,49.13
2018-03-04T19:07:08.774Z,41.63
2018-03-04T19:09:36.250Z,47.67
2018-03-04T19:12:03.737Z,47.00
2018-03-04T19:14:32.407Z,41.73
2018-03-04T19:17:00.252Z,45.40
2018-03-04T19:19:27.735Z,49.50
2018-03-04T19:21:55.214Z,50.40
2018-03-04T19:24:23.480Z,57.53
2018-03-04T19:26:52.598Z,48.73
2018-03-04T19:29:20.098Z,57.23
2018-03-04T19:31:47.607Z,51.07
2018-03-04T19:34:15.126Z,53.67
2018-03-04T19:36:43.199Z,41.63
2018-03-04T19:39:10.693Z,48.40
2018-03-04T19:41:39.575Z,47.50
2018-03-04T19:44:07.740Z,48.67
2018-03-04T19:46:36.077Z,51.33
2018-03-04T19:49:05.288Z,53.00
2018-03-04T19:51:33.613Z,49.77
2018-03-04T19:54:01.108Z,49.20
2018-03-04T19:56:28.653Z,48.50
2018-03-04T19:58:56.210Z,47.80
2018-03-04T20:01:23.735Z,45.47
2018-03-04T20:03:51.228Z,49.57
2018-03-04T20:06:18.866Z,53.30
2018-03-04T20:08:46.354Z,51.73
2018-03-04T20:11:13.859Z,54.13
2018-03-04T20:13:41.335Z,55.27
2018-03-04T20:16:08.859Z,52.37
2018-03-04T20:18:36.531Z,57.10
2018-03-04T20:21:04.654Z,52.37
2018-03-04T20:23:32.168Z,56.07
2018-03-04T20:26:00.755Z,63.33
2018-03-04T20:28:28.288Z,48.40
2018-03-04T20:30:55.801Z,49.93
2018-03-04T20:33:23.297Z,47.33
2018-03-04T20:35:51.539Z,52.53
2018-03-04T20:38:19.393Z,53.47
2018-03-04T20:40:47.085Z,52.63
2018-03-04T20:43:15.372Z,50.30
2018-03-04T20:45:44.341Z,50.97
2018-03-04T20:48:11.844Z,53.87
2018-03-04T20:50:39.884Z,48.20
2018-03-04T20:53:07.854Z,53.13
2018-03-04T20:55:36.881Z,52.73
2018-03-04T20:58:06.723Z,50.97
2018-03-04T21:00:34.274Z,54.20
2018-03-04T21:03:02.408Z,53.73
2018-03-04T21:05:29.977Z,51.07
2018-03-04T21:07:57.591Z,46.27
2018-03-04T21:10:29.845Z,52.77
2018-03-04T21:13:00.172Z,53.17
2018-03-04T21:15:27.719Z,50.37
2018-03-04T21:17:57.122Z,48.33
2018-03-04T21:20:25.490Z,54.73
2018-03-04T21:22:53.690Z,50.90
2018-03-04T21:25:22.487Z,53.23
2018-03-04T21:27:51.755Z,50.00
2018-03-04T21:30:19.309Z,51.60
2018-03-04T21:32:47.704Z,48.30
2018-03-04T21:35:16.971Z,51.73
2018-03-04T21:37:47.223Z,47.03
2018-03-04T21:40:14.732Z,52.40
2018-03-04T21:42:42.317Z,48.50
2018-03-04T21:45:09.842Z,51.37
2018-03-04T21:47:38.110Z,47.53
2018-03-04T21:50:06.327Z,44.93
2018-03-04T21:52:34.724Z,52.17
2018-03-04T21:55:04.854Z,50.23
2018-03-04T21:57:34.954Z,45.67
2018-03-04T22:00:04.451Z,49.10
2018-03-04T22:02:32.717Z,54.03
2018-03-04T22:05:00.264Z,40.80
2018-03-04T22:07:29.310Z,50.40
2018-03-04T22:09:58.395Z,49.63
2018-03-04T22:12:27.461Z,47.53
2018-03-04T22:14:56.006Z,46.30
2018-03-04T22:33:38.550Z,41.30
2018-03-04T22:36:06.085Z,39.40
2018-03-04T22:38:34.407Z,39.23
2018-03-04T22:41:02.840Z,35.77
2018-03-04T22:43:31.021Z,33.93
2018-03-04T22:46:00.023Z,31.47
2018-03-04T22:48:27.503Z,27.20
2018-03-04T22:50:56.655Z,26.73
2018-03-04T22:53:24.921Z,25.13
2018-03-04T22:55:52.392Z,20.77
2018-03-04T22:58:20.699Z,20.73
2018-03-04T23:00:48.179Z,18.63
2018-03-04T23:03:15.669Z,16.73
2018-03-04T23:05:43.176Z,15.23
2018-03-04T23:08:10.647Z,14.70
2018-03-04T23:10:38.122Z,12.37
2018-03-04T23:13:05.592Z,12.70
2018-03-04T23:15:33.097Z,10.33
2018-03-04T23:18:00.584Z,12.57
2018-03-04T23:20:28.069Z,7.40
2018-03-04T23:22:56.320Z,7.03
2018-03-04T23:25:23.819Z,5.37
2018-03-04T23:27:51.340Z,10.97
2018-03-04T23:30:20.309Z,6.57
2018-03-04T23:32:47.774Z,4.57
2018-03-04T23:35:15.253Z,4.60
2018-03-04T23:37:42.761Z,4.63
2018-03-04T23:40:10.234Z,4.03
2018-03-04T23:42:37.865Z,3.70
2018-03-04T23:45:05.367Z,4.53
2018-03-04T23:47:32.925Z,3.27
2018-03-04T23:50:00.404Z,5.60
2018-03-04T23:52:28.766Z,3.73
2018-03-04T23:54:57.083Z,2.93
2018-03-04T23:57:24.571Z,5.10
2018-03-04T23:59:52.038Z,3.23
